Terminal Aerodrome Forecast
Issued by NWS

Home | Current Version | Previous Version | Text Only | Print | Product List | Glossary On
Versions: 1 2 3 4 5 6 7 8 9 10 11 12 13 14 15
937
FTUS43 KEAX 121602 AAA
TAFMKC
TAF AMD
KMKC 121602Z 1216/1312 34010KT P6SM SCT025 BKN035
     FM121800 35012G20KT P6SM SCT035
     FM122300 03008KT P6SM SCT100=

USA.gov is the U.S. government's official web portal to all federal, state and local government web resources and services.